Time;durP1;ratioP1;P1;durP2;ratioP2;P2;SDS_P1;SDS_P2;PMS_P1;PMS_P2;Temp;Humidity;BMP_temperature;BMP_pressure;BME280_temperature;BME280_humidity;BME280_pressure;Samples;Min_cycle;Max_cycle;Signal;HPM_P1;HPM_P2
2022/07/25 00:02:59;;;;;;;3.15;2.85;;;22.10;99.90;;;;;;10605200;28;20546;-89
2022/07/25 00:08:04;;;;;;;3.45;3.13;;;22.10;99.90;;;;;;10604767;28;20220;-89
2022/07/25 00:13:07;;;;;;;2.88;2.67;;;22.10;99.90;;;;;;10623288;28;20193;-89
2022/07/25 00:18:09;;;;;;;3.42;3.13;;;22.10;99.90;;;;;;10623217;28;20249;-89
2022/07/25 00:23:12;;;;;;;3.55;2.95;;;22.10;99.90;;;;;;10627308;27;20610;-89
2022/07/25 00:28:14;;;;;;;3.50;3.20;;;22.10;99.90;;;;;;10631476;27;20215;-88
2022/07/25 00:33:17;;;;;;;3.75;3.45;;;22.10;99.90;;;;;;10612239;27;20590;-89
2022/07/25 00:38:19;;;;;;;3.10;2.78;;;22.10;99.90;;;;;;10612945;27;20546;-89
2022/07/25 00:43:23;;;;;;;3.22;2.92;;;22.10;99.90;;;;;;10612279;27;20277;-89
2022/07/25 00:48:27;;;;;;;3.25;2.95;;;22.10;99.90;;;;;;10630436;27;20563;-89
2022/07/25 00:53:29;;;;;;;2.97;2.78;;;22.00;99.90;;;;;;10612266;27;20188;-89
2022/07/25 00:58:32;;;;;;;3.35;2.95;;;22.10;99.90;;;;;;10594978;27;20200;-89
2022/07/25 01:03:35;;;;;;;3.85;3.50;;;22.00;99.90;;;;;;10630026;27;20201;-89
2022/07/25 01:08:38;;;;;;;6.75;3.22;;;22.00;99.90;;;;;;10611909;27;20307;-89
2022/07/25 01:13:40;;;;;;;3.45;3.05;;;22.00;99.90;;;;;;10611585;27;20184;-89
2022/07/25 01:18:43;;;;;;;3.25;2.95;;;22.00;99.90;;;;;;10610465;27;20208;-89
2022/07/25 01:23:46;;;;;;;2.95;2.75;;;22.00;99.90;;;;;;10629513;27;20622;-89
2022/07/25 01:28:48;;;;;;;3.30;3.00;;;21.90;99.90;;;;;;10629140;27;20257;-89
2022/07/25 01:33:51;;;;;;;3.05;2.75;;;22.00;99.90;;;;;;10627556;27;20225;-89
2022/07/25 01:38:54;;;;;;;3.35;3.05;;;22.00;99.90;;;;;;10628814;27;20200;-89
2022/07/25 01:43:56;;;;;;;3.47;3.17;;;21.90;99.90;;;;;;10628512;27;20728;-89
2022/07/25 01:48:59;;;;;;;3.60;3.30;;;22.00;99.90;;;;;;10628109;27;20216;-88
2022/07/25 01:54:02;;;;;;;4.05;2.90;;;22.00;99.90;;;;;;10609286;27;20324;-89
2022/07/25 01:59:07;;;;;;;3.58;3.28;;;22.00;99.90;;;;;;10627852;27;20192;-89
2022/07/25 02:04:10;;;;;;;3.40;3.10;;;22.00;99.90;;;;;;10627472;27;20192;-89
2022/07/25 02:09:13;;;;;;;3.28;2.95;;;22.00;99.90;;;;;;10608391;27;20570;-89
2022/07/25 02:14:15;;;;;;;3.45;3.15;;;22.00;99.90;;;;;;10608963;27;20192;-89
2022/07/25 02:19:18;;;;;;;2.75;2.55;;;22.00;99.90;;;;;;10608829;27;20242;-89
2022/07/25 02:24:20;;;;;;;3.85;3.15;;;22.00;99.90;;;;;;10626733;27;20196;-89
2022/07/25 02:29:23;;;;;;;3.05;2.85;;;22.00;99.90;;;;;;10626488;27;20212;-89
2022/07/25 02:34:26;;;;;;;3.60;3.30;;;22.00;99.90;;;;;;10608103;27;20612;-88
2022/07/25 02:39:28;;;;;;;3.28;3.08;;;21.90;99.90;;;;;;10608160;27;20200;-89
2022/07/25 02:44:31;;;;;;;3.30;3.00;;;21.90;99.90;;;;;;10625949;27;20621;-89
2022/07/25 02:49:33;;;;;;;3.45;3.15;;;21.90;99.90;;;;;;10607570;27;20242;-89
2022/07/25 02:54:35;;;;;;;3.70;2.88;;;21.90;99.90;;;;;;10607602;27;20193;-89
2022/07/25 02:59:39;;;;;;;4.68;3.17;;;21.90;99.90;;;;;;10625740;27;20603;-89
2022/07/25 03:04:42;;;;;;;3.00;2.80;;;21.90;99.90;;;;;;10606760;27;20200;-90
2022/07/25 03:09:44;;;;;;;3.65;3.35;;;21.90;99.90;;;;;;10605985;27;20568;-89
2022/07/25 03:14:47;;;;;;;3.10;2.90;;;21.90;99.90;;;;;;10624805;27;20192;-89
2022/07/25 03:19:50;;;;;;;3.50;3.20;;;21.90;99.90;;;;;;10624615;27;20230;-89
2022/07/25 03:24:52;;;;;;;3.60;3.17;;;21.90;99.90;;;;;;10624698;27;20217;-89
2022/07/25 03:29:55;;;;;;;2.90;2.70;;;21.90;99.90;;;;;;10624357;27;20262;-88
2022/07/25 03:34:57;;;;;;;3.58;3.28;;;22.00;99.90;;;;;;10624060;27;20566;-89
2022/07/25 03:40:00;;;;;;;3.30;3.00;;;22.00;99.90;;;;;;10624136;27;20214;-89
2022/07/25 03:45:03;;;;;;;4.38;3.60;;;22.00;99.90;;;;;;10624034;27;20566;-89
2022/07/25 03:50:06;;;;;;;3.45;3.15;;;22.00;99.90;;;;;;10623743;27;20200;-89
2022/07/25 03:55:10;;;;;;;3.17;2.92;;;22.00;99.90;;;;;;10604801;28;20201;-90
2022/07/25 04:00:13;;;;;;;3.85;3.55;;;22.00;99.90;;;;;;10623170;27;20192;-89
2022/07/25 04:05:15;;;;;;;3.03;2.80;;;22.00;99.90;;;;;;10605187;28;20257;-88
2022/07/25 04:10:18;;;;;;;3.42;3.15;;;22.00;99.90;;;;;;10605425;28;20629;-89
2022/07/25 04:15:20;;;;;;;3.63;3.33;;;22.00;99.90;;;;;;10623350;28;20253;-89
2022/07/25 04:20:23;;;;;;;3.60;3.30;;;22.10;99.90;;;;;;10622961;28;20234;-90
2022/07/25 04:25:26;;;;;;;3.55;3.25;;;22.10;99.90;;;;;;10623236;28;20258;-89
2022/07/25 04:30:28;;;;;;;3.28;3.08;;;22.10;99.90;;;;;;10622819;28;20220;-89
2022/07/25 04:35:31;;;;;;;4.28;3.88;;;22.10;99.90;;;;;;10622655;28;20249;-89
2022/07/25 04:40:34;;;;;;;3.35;3.13;;;22.10;99.90;;;;;;10622620;28;20538;-89
2022/07/25 04:45:36;;;;;;;3.33;3.00;;;22.10;99.90;;;;;;10603935;28;20221;-89
2022/07/25 04:50:39;;;;;;;3.45;3.22;;;22.10;99.90;;;;;;10622598;28;20197;-89
2022/07/25 04:55:41;;;;;;;3.90;3.60;;;22.10;99.90;;;;;;10604694;28;20250;-89
2022/07/25 05:00:44;;;;;;;4.03;3.13;;;22.20;99.90;;;;;;10622665;28;20201;-89
2022/07/25 05:05:46;;;;;;;3.67;3.38;;;22.20;99.90;;;;;;10622333;28;20212;-89
2022/07/25 05:10:48;;;;;;;3.55;3.25;;;22.20;99.90;;;;;;10608976;27;20241;-89
2022/07/25 05:15:54;;;;;;;3.50;3.20;;;22.20;99.90;;;;;;10594933;27;20200;-89
2022/07/25 05:20:57;;;;;;;3.65;3.35;;;22.20;99.90;;;;;;10594517;27;20192;-89
2022/07/25 05:25:59;;;;;;;3.80;3.50;;;22.30;99.90;;;;;;10611384;27;20219;-89
2022/07/25 05:31:02;;;;;;;3.70;3.40;;;22.30;99.90;;;;;;10610338;27;20254;-90
2022/07/25 05:36:05;;;;;;;4.00;3.70;;;22.30;99.90;;;;;;10593773;27;20234;-88
2022/07/25 05:41:08;;;;;;;3.45;3.25;;;22.30;99.90;;;;;;10628748;27;20222;-89
2022/07/25 05:46:10;;;;;;;4.07;3.00;;;22.40;99.90;;;;;;10628823;27;20204;-89
2022/07/25 05:51:13;;;;;;;3.47;3.15;;;22.40;99.90;;;;;;10628553;27;20544;-89
2022/07/25 05:56:15;;;;;;;3.45;3.22;;;22.40;99.90;;;;;;10610089;27;20237;-88
2022/07/25 06:01:18;;;;;;;3.97;3.67;;;22.30;99.90;;;;;;10628068;27;20678;-88
2022/07/25 06:06:20;;;;;;;3.60;3.30;;;22.30;99.90;;;;;;10627847;27;20242;-88
2022/07/25 06:11:25;;;;;;;4.03;3.72;;;22.40;99.90;;;;;;10627570;27;20241;-89
2022/07/25 06:16:31;;;;;;;4.25;3.85;;;22.40;99.90;;;;;;10609750;27;20249;-89
2022/07/25 06:21:35;;;;;;;4.15;3.35;;;22.40;99.90;;;;;;10609752;27;20196;-89
2022/07/25 06:26:37;;;;;;;4.60;3.08;;;22.40;99.90;;;;;;10610473;27;20265;-89
2022/07/25 06:31:40;;;;;;;3.50;3.20;;;22.50;99.90;;;;;;10626301;27;20228;-89
2022/07/25 06:36:42;;;;;;;2.97;2.78;;;22.40;99.90;;;;;;10626317;27;20216;-88
2022/07/25 06:41:45;;;;;;;7.00;4.97;;;22.60;99.90;;;;;;10607227;27;20300;-88
2022/07/25 06:46:50;;;;;;;3.20;3.00;;;22.50;99.90;;;;;;10607165;27;20228;-89
2022/07/25 06:51:52;;;;;;;3.55;3.25;;;22.60;99.90;;;;;;10607346;27;20261;-89
2022/07/25 06:56:55;;;;;;;3.40;3.17;;;22.70;99.90;;;;;;10607226;27;20195;-88
2022/07/25 07:01:58;;;;;;;3.97;3.53;;;22.80;99.90;;;;;;10626092;27;20584;-89
2022/07/25 07:07:00;;;;;;;3.85;3.53;;;22.90;99.90;;;;;;10625476;27;20253;-89
2022/07/25 07:12:03;;;;;;;3.05;2.85;;;23.00;99.90;;;;;;10589294;27;20612;-89
2022/07/25 07:17:05;;;;;;;3.67;3.38;;;23.10;99.90;;;;;;10624807;27;20268;-89
2022/07/25 07:22:07;;;;;;;3.75;3.45;;;23.10;99.90;;;;;;10606211;27;20204;-89
2022/07/25 07:27:11;;;;;;;7.00;3.00;;;23.30;99.90;;;;;;10624694;27;20216;-89
2022/07/25 07:32:14;;;;;;;3.83;3.35;;;23.40;99.90;;;;;;10605114;27;20339;-88
2022/07/25 07:37:16;;;;;;;3.53;3.03;;;23.40;99.90;;;;;;10605630;27;20261;-89
2022/07/25 07:42:19;;;;;;;7.13;4.13;;;23.60;99.90;;;;;;10605912;27;20222;-89
2022/07/25 07:47:21;;;;;;;3.28;2.97;;;23.60;99.90;;;;;;10605824;27;20211;-88
2022/07/25 07:52:24;;;;;;;3.55;3.22;;;23.60;99.90;;;;;;10624282;27;20245;-89
2022/07/25 07:57:26;;;;;;;3.13;2.92;;;23.70;99.90;;;;;;10588403;28;20225;-89
2022/07/25 08:02:28;;;;;;;2.90;2.70;;;23.80;99.90;;;;;;10623672;28;20266;-89
2022/07/25 08:07:31;;;;;;;3.63;3.33;;;23.90;99.90;;;;;;10623626;28;20622;-89
2022/07/25 08:12:39;;;;;;;4.72;3.28;;;23.70;99.90;;;;;;10623727;28;20249;-89
2022/07/25 08:17:43;;;;;;;3.03;2.70;;;23.60;99.90;;;;;;10605420;28;20204;-89
2022/07/25 08:22:47;;;;;;;3.17;2.97;;;23.80;99.90;;;;;;10625366;28;20233;-88
2022/07/25 08:27:54;;;;;;;3.83;3.53;;;23.80;99.90;;;;;;10588419;28;20232;-89
2022/07/25 08:33:00;;;;;;;2.92;2.72;;;24.00;99.90;;;;;;10604138;28;20228;-88
2022/07/25 08:38:04;;;;;;;2.28;2.03;;;23.80;99.90;;;;;;10604988;28;20200;-89
2022/07/25 08:43:11;;;;;;;3.55;3.25;;;24.20;99.90;;;;;;10607202;27;20626;-89
2022/07/25 08:48:17;;;;;;;3.38;2.60;;;24.10;99.90;;;;;;10631179;27;20208;-89
2022/07/25 08:53:20;;;;;;;3.15;2.90;;;24.30;99.90;;;;;;10613008;27;20303;-89
2022/07/25 08:58:40;;;;;;;4.07;2.67;;;24.20;99.90;;;;;;10611899;27;20196;-90
2022/07/25 09:03:43;;;;;;;2.72;1.98;;;24.50;99.90;;;;;;10612131;27;20200;-89
2022/07/25 09:08:57;;;;;;;2.78;1.90;;;24.60;99.90;;;;;;10631503;27;20261;-88
2022/07/25 09:14:06;;;;;;;3.10;2.90;;;25.00;97.60;;;;;;10612272;27;20204;-89
2022/07/25 09:19:17;;;;;;;2.38;2.17;;;25.50;99.90;;;;;;10630728;27;20721;-89
2022/07/25 09:24:21;;;;;;;4.20;2.38;;;24.70;99.90;;;;;;10631108;27;20241;-89
2022/07/25 09:29:32;;;;;;;2.15;1.83;;;25.10;99.90;;;;;;10594052;27;20228;-88
2022/07/25 09:34:34;;;;;;;3.50;3.20;;;25.90;95.50;;;;;;10629150;27;20285;-88
2022/07/25 09:39:39;;;;;;;2.78;2.58;;;25.30;99.90;;;;;;10611180;27;20192;-89
2022/07/25 09:45:12;;;;;;;3.25;1.88;;;25.40;96.30;;;;;;10628694;27;20200;-89
2022/07/25 09:50:15;;;;;;;2.30;1.90;;;25.60;95.80;;;;;;10610518;27;20245;-89
2022/07/25 09:55:19;;;;;;;13.63;2.03;;;25.80;98.10;;;;;;10627765;27;20525;-88
2022/07/25 10:00:25;;;;;;;3.63;1.70;;;25.90;96.70;;;;;;10628141;27;20192;-89
2022/07/25 10:05:42;;;;;;;2.30;1.60;;;26.00;93.50;;;;;;10609612;27;20571;-89
2022/07/25 10:10:45;;;;;;;1.40;1.30;;;26.40;91.40;;;;;;10609286;27;20640;-89
2022/07/25 10:15:52;;;;;;;3.20;3.00;;;27.10;94.50;;;;;;10609638;27;20193;-89
2022/07/25 10:21:10;;;;;;;1.52;1.40;;;25.90;99.70;;;;;;10609288;27;20256;-89
2022/07/25 10:26:26;;;;;;;10.20;1.75;;;26.60;93.80;;;;;;10627196;27;20256;-89
2022/07/25 10:31:34;;;;;;;2.53;1.58;;;26.90;93.00;;;;;;10609209;27;20636;-89
2022/07/25 10:36:49;;;;;;;2.38;1.20;;;26.90;95.70;;;;;;10608167;27;20200;-88
2022/07/25 10:41:54;;;;;;;3.20;2.90;;;27.40;93.70;;;;;;10608360;27;20245;-88
2022/07/25 10:47:09;;;;;;;2.85;2.65;;;26.00;99.30;;;;;;10607966;27;20212;-89
2022/07/25 10:52:17;;;;;;;3.50;3.20;;;26.20;98.90;;;;;;10608018;27;20188;-89
2022/07/25 10:57:20;;;;;;;5.65;1.65;;;25.60;99.90;;;;;;10607923;27;20200;-89
2022/07/25 11:02:23;;;;;;;41.50;4.25;;;25.70;93.20;;;;;;10607918;27;20260;-89
2022/07/25 11:07:27;;;;;;;1.98;1.02;;;25.60;96.50;;;;;;10607543;27;20252;-88
2022/07/25 11:12:30;;;;;;;3.33;2.80;;;27.00;92.20;;;;;;10606803;27;20196;-88
2022/07/25 11:17:33;;;;;;;1.58;1.10;;;27.30;95.80;;;;;;10606926;27;20620;-89
2022/07/25 11:22:35;;;;;;;2.17;1.58;;;27.40;90.30;;;;;;10625277;27;20241;-89
2022/07/25 11:27:38;;;;;;;3.50;3.25;;;26.30;93.00;;;;;;10624979;27;20551;-89
2022/07/25 11:33:02;;;;;;;1.35;1.00;;;26.60;97.30;;;;;;10624528;27;20216;-88
2022/07/25 11:38:06;;;;;;;1.10;1.00;;;27.30;90.00;;;;;;10605994;27;20200;-88
2022/07/25 11:43:21;;;;;;;3.47;1.02;;;28.20;85.20;;;;;;10624268;27;20188;-89
2022/07/25 11:48:33;;;;;;;2.30;2.10;;;28.30;80.70;;;;;;10624008;27;20245;-89
2022/07/25 11:53:40;;;;;;;9.25;1.30;;;28.10;85.70;;;;;;10624091;27;20222;-88
2022/07/25 11:58:56;;;;;;;3.33;1.60;;;27.30;85.70;;;;;;10624455;27;20192;-89
2022/07/25 12:04:18;;;;;;;1.05;0.90;;;28.10;82.00;;;;;;10606048;28;20204;-88
2022/07/25 12:09:21;;;;;;;4.05;2.00;;;27.20;90.50;;;;;;10604921;28;20265;-89
2022/07/25 12:14:23;;;;;;;2.47;2.28;;;27.90;86.10;;;;;;10623720;28;20193;-89
2022/07/25 12:19:26;;;;;;;5.97;2.60;;;28.50;90.40;;;;;;10628208;27;20598;-89
2022/07/25 12:24:28;;;;;;;4.25;1.23;;;26.60;96.60;;;;;;10615202;27;20218;-89
2022/07/25 12:29:31;;;;;;;1.73;1.35;;;27.20;88.20;;;;;;10631615;27;20708;-88
2022/07/25 12:34:33;;;;;;;2.60;2.40;;;28.20;83.30;;;;;;10632757;27;20268;-88
2022/07/25 12:39:36;;;;;;;1.58;1.15;;;27.40;94.20;;;;;;10633590;27;20605;-90
2022/07/25 12:44:38;;;;;;;2.30;2.08;;;28.10;83.70;;;;;;10614074;27;20200;-88
2022/07/25 12:49:40;;;;;;;3.17;2.28;;;28.00;84.60;;;;;;10631053;27;20254;-89
2022/07/25 12:54:43;;;;;;;1.80;1.60;;;28.40;86.30;;;;;;10631062;27;20188;-89
2022/07/25 12:59:46;;;;;;;2.20;2.00;;;28.80;80.30;;;;;;10612720;27;20607;-89
2022/07/25 13:04:48;;;;;;;3.78;1.67;;;27.20;86.50;;;;;;10612411;27;20541;-89
2022/07/25 13:09:51;;;;;;;2.83;1.40;;;27.10;87.40;;;;;;10630575;27;20248;-89
2022/07/25 13:14:53;;;;;;;3.03;2.72;;;28.70;78.60;;;;;;10612087;27;20193;-90
2022/07/25 13:19:56;;;;;;;2.83;2.63;;;28.10;92.30;;;;;;10629867;27;20229;-89
2022/07/25 13:24:59;;;;;;;5.97;2.20;;;27.80;89.60;;;;;;10629799;27;20249;-89
2022/07/25 13:30:01;;;;;;;7.82;1.48;;;26.80;93.70;;;;;;10609404;27;20589;-89
2022/07/25 13:35:04;;;;;;;4.28;1.60;;;27.40;87.50;;;;;;10611341;27;20246;-89
2022/07/25 13:40:07;;;;;;;4.05;1.50;;;28.40;82.70;;;;;;10610579;27;20255;-89
2022/07/25 13:45:10;;;;;;;2.17;1.98;;;29.40;81.10;;;;;;10629579;27;20192;-89
2022/07/25 13:50:12;;;;;;;3.22;1.70;;;28.00;85.40;;;;;;10612022;27;20212;-89
2022/07/25 13:55:15;;;;;;;3.78;2.33;;;27.20;85.00;;;;;;10628902;27;20192;-89
2022/07/25 14:00:18;;;;;;;4.82;2.08;;;27.90;84.70;;;;;;10628236;27;20603;-88
2022/07/25 14:05:20;;;;;;;3.20;2.00;;;28.50;82.90;;;;;;10610056;27;20253;-89
2022/07/25 14:10:23;;;;;;;1.73;1.63;;;28.70;84.20;;;;;;10628056;27;20216;-89
2022/07/25 14:15:25;;;;;;;3.38;1.83;;;28.30;87.20;;;;;;10627782;27;20208;-89
2022/07/25 14:20:28;;;;;;;5.03;1.95;;;28.10;85.50;;;;;;10627397;27;20192;-89
2022/07/25 14:25:30;;;;;;;2.90;2.70;;;28.90;79.80;;;;;;10627551;27;20264;-89
2022/07/25 14:30:33;;;;;;;4.90;1.80;;;28.40;83.80;;;;;;10609003;27;20228;-89
2022/07/25 14:35:36;;;;;;;2.97;2.78;;;27.60;91.40;;;;;;10626923;27;20222;-89
2022/07/25 14:40:38;;;;;;;6.50;2.30;;;27.30;94.30;;;;;;10607783;27;20230;-90
2022/07/25 14:45:41;;;;;;;3.13;2.83;;;28.60;87.10;;;;;;10608076;27;20250;-89
2022/07/25 14:50:43;;;;;;;2.13;1.95;;;26.50;96.20;;;;;;10625912;27;20625;-90
2022/07/25 14:55:45;;;;;;;3.15;2.00;;;26.70;94.70;;;;;;10626259;27;20193;-90
2022/07/25 15:00:48;;;;;;;4.50;2.58;;;27.20;86.00;;;;;;10607719;27;20200;-89
2022/07/25 15:05:50;;;;;;;3.08;2.78;;;28.30;91.00;;;;;;10590006;27;20204;-90
2022/07/25 15:10:53;;;;;;;3.35;2.67;;;26.70;96.00;;;;;;10625216;27;20242;-91
2022/07/25 15:15:56;;;;;;;3.65;1.80;;;26.70;95.50;;;;;;10606858;27;20547;-90
2022/07/25 15:20:59;;;;;;;2.72;2.53;;;27.00;93.00;;;;;;10606504;27;20218;-90
2022/07/25 15:26:01;;;;;;;2.50;2.30;;;27.00;92.40;;;;;;10606601;27;20184;-90
2022/07/25 15:31:05;;;;;;;2.53;1.92;;;27.30;90.40;;;;;;10624385;27;20632;-89
2022/07/25 15:36:08;;;;;;;2.60;2.40;;;26.90;88.60;;;;;;10624109;27;20568;-89
2022/07/25 15:41:11;;;;;;;2.42;1.98;;;26.60;96.10;;;;;;10605176;27;20571;-90
2022/07/25 15:46:15;;;;;;;1.73;1.63;;;26.20;94.90;;;;;;10623903;27;20196;-90
2022/07/25 15:51:18;;;;;;;8.85;2.88;;;27.30;88.20;;;;;;10623560;27;20208;-89
2022/07/25 15:56:20;;;;;;;3.38;2.10;;;27.50;90.00;;;;;;10623186;27;20214;-90
2022/07/25 16:01:23;;;;;;;5.32;1.95;;;27.20;90.20;;;;;;10605402;28;20192;-89
2022/07/25 16:06:26;;;;;;;3.78;2.03;;;27.00;91.40;;;;;;10623457;28;20201;-89
2022/07/25 16:11:29;;;;;;;3.88;2.30;;;27.10;92.40;;;;;;10605189;28;20261;-89
2022/07/25 16:16:31;;;;;;;2.03;1.83;;;27.20;95.00;;;;;;10604645;28;20195;-90
2022/07/25 16:21:34;;;;;;;2.50;2.30;;;26.30;96.20;;;;;;10605127;28;20253;-90
2022/07/25 16:26:37;;;;;;;4.43;2.25;;;25.90;98.20;;;;;;10623014;28;20327;-89
2022/07/25 16:31:39;;;;;;;2.75;2.53;;;26.10;96.50;;;;;;10604609;28;20224;-89
2022/07/25 16:36:42;;;;;;;2.35;2.15;;;26.30;97.30;;;;;;10604347;28;20571;-90
2022/07/25 16:41:44;;;;;;;2.85;2.10;;;26.20;93.60;;;;;;10604735;28;20200;-89
2022/07/25 16:46:47;;;;;;;8.32;1.63;;;26.30;97.30;;;;;;10622911;28;20607;-89
2022/07/25 16:51:49;;;;;;;2.92;2.72;;;26.60;92.00;;;;;;10604006;28;20250;-90
2022/07/25 16:56:52;;;;;;;2.67;2.47;;;26.30;94.30;;;;;;10587259;28;20271;-89
2022/07/25 17:01:59;;;;;;;2.72;2.53;;;26.20;97.50;;;;;;10623469;28;20188;-89
2022/07/25 17:07:02;;;;;;;4.38;2.33;;;25.70;99.20;;;;;;10629069;27;20196;-90
2022/07/25 17:12:05;;;;;;;3.00;2.25;;;25.70;94.90;;;;;;10594658;27;20228;-89
2022/07/25 17:17:09;;;;;;;4.70;2.33;;;25.90;96.10;;;;;;10629657;27;20192;-89
2022/07/25 17:22:11;;;;;;;2.53;2.33;;;25.70;97.10;;;;;;10610659;27;20208;-89
2022/07/25 17:27:14;;;;;;;6.43;1.90;;;25.60;99.70;;;;;;10629385;27;20530;-89
2022/07/25 17:32:17;;;;;;;2.60;1.92;;;25.50;97.80;;;;;;10611041;27;20265;-90
2022/07/25 17:37:19;;;;;;;3.10;2.33;;;25.70;98.30;;;;;;10629153;27;20559;-90
2022/07/25 17:42:22;;;;;;;2.67;2.47;;;25.70;99.50;;;;;;10609878;27;20200;-90
2022/07/25 17:47:25;;;;;;;4.50;2.47;;;25.40;99.90;;;;;;10610441;27;20192;-90
2022/07/25 17:52:27;;;;;;;2.58;2.38;;;25.30;99.70;;;;;;10628223;27;20265;-90
2022/07/25 17:57:30;;;;;;;2.47;2.28;;;25.10;99.90;;;;;;10609748;27;20200;-89
2022/07/25 18:02:32;;;;;;;3.95;2.03;;;24.90;99.90;;;;;;10628035;27;20196;-90
2022/07/25 18:07:35;;;;;;;2.70;2.50;;;24.80;99.90;;;;;;10627830;27;20237;-90
2022/07/25 18:12:37;;;;;;;2.75;2.55;;;24.70;99.90;;;;;;10609703;27;20216;-89
2022/07/25 18:17:44;;;;;;;3.10;2.80;;;24.40;99.90;;;;;;10608783;27;20238;-90
2022/07/25 18:22:47;;;;;;;2.20;2.00;;;24.40;99.90;;;;;;10591646;27;20200;-89
2022/07/25 18:27:49;;;;;;;2.47;2.20;;;24.40;99.90;;;;;;10627094;27;20242;-89
2022/07/25 18:32:52;;;;;;;4.78;2.50;;;24.30;99.90;;;;;;10607996;27;20229;-89
2022/07/25 18:37:54;;;;;;;4.05;2.45;;;24.20;99.90;;;;;;10626626;27;20188;-90
2022/07/25 18:42:57;;;;;;;2.90;2.55;;;24.20;99.90;;;;;;10626606;27;20253;-90
2022/07/25 18:47:59;;;;;;;4.25;2.55;;;24.10;99.90;;;;;;10608047;27;20250;-90
2022/07/25 18:53:02;;;;;;;4.78;2.58;;;24.00;99.90;;;;;;10625869;27;20269;-90
2022/07/25 18:58:06;;;;;;;3.35;2.78;;;24.00;99.90;;;;;;10626006;27;20246;-89
2022/07/25 19:03:09;;;;;;;12.40;2.47;;;23.80;99.90;;;;;;10625589;27;20272;-89
2022/07/25 19:08:11;;;;;;;2.92;2.70;;;23.70;99.60;;;;;;10607209;27;20188;-89
2022/07/25 19:13:14;;;;;;;15.85;3.72;;;23.60;99.90;;;;;;10625281;27;20269;-89
2022/07/25 19:18:37;;;;;;;6.80;2.40;;;23.40;99.90;;;;;;10610182;27;20185;-89
2022/07/25 19:23:39;;;;;;;8.50;2.90;;;23.40;99.90;;;;;;10625385;27;20193;-89
2022/07/25 19:28:42;;;;;;;2.60;2.40;;;23.30;99.90;;;;;;10605398;27;20677;-89
2022/07/25 19:33:45;;;;;;;4.78;2.53;;;23.30;99.90;;;;;;10605989;27;20284;-89
2022/07/25 19:38:47;;;;;;;14.95;3.92;;;23.20;99.90;;;;;;10606777;27;20192;-90
2022/07/25 19:43:51;;;;;;;3.38;2.70;;;23.00;99.90;;;;;;10624893;27;20233;-90
2022/07/25 19:48:53;;;;;;;2.83;2.63;;;22.90;99.90;;;;;;10624373;27;20215;-89
2022/07/25 19:53:56;;;;;;;2.40;2.20;;;22.90;99.90;;;;;;10624493;27;20595;-89
2022/07/25 19:58:59;;;;;;;2.88;2.50;;;23.00;99.90;;;;;;10624313;27;20188;-90
2022/07/25 20:04:03;;;;;;;3.10;2.50;;;23.00;99.90;;;;;;10606328;27;20618;-89
2022/07/25 20:09:08;;;;;;;2.75;2.55;;;23.00;99.90;;;;;;10624876;28;20233;-90
2022/07/25 20:14:11;;;;;;;2.60;2.40;;;23.10;99.90;;;;;;10606258;28;20222;-89
2022/07/25 20:19:13;;;;;;;2.60;2.40;;;23.00;99.90;;;;;;10624153;28;20590;-89
2022/07/25 20:24:18;;;;;;;2.42;2.17;;;23.10;99.90;;;;;;10605841;28;20245;-90
2022/07/25 20:29:23;;;;;;;3.17;2.03;;;23.00;99.90;;;;;;10624105;28;20276;-90
2022/07/25 20:34:25;;;;;;;4.75;2.28;;;23.00;99.90;;;;;;10579754;28;20643;-90
2022/07/25 20:39:28;;;;;;;7.47;2.50;;;23.00;99.90;;;;;;10583088;28;20253;-89
2022/07/25 20:44:30;;;;;;;2.45;2.25;;;23.00;99.90;;;;;;10571400;28;20204;-90
2022/07/25 20:49:33;;;;;;;3.83;2.55;;;23.00;99.90;;;;;;10588400;28;20209;-90
2022/07/25 20:54:35;;;;;;;2.92;2.45;;;23.00;99.90;;;;;;10588641;28;20230;-90
2022/07/25 20:59:38;;;;;;;2.95;2.65;;;23.00;99.90;;;;;;10588639;28;20197;-90
2022/07/25 21:04:41;;;;;;;3.08;2.50;;;23.00;99.90;;;;;;10586733;28;20209;-90
2022/07/25 21:09:44;;;;;;;2.40;2.20;;;22.90;99.90;;;;;;10586730;28;20282;-90
2022/07/25 21:14:48;;;;;;;2.60;2.40;;;22.90;99.90;;;;;;10587097;28;20242;-90
2022/07/25 21:19:51;;;;;;;3.95;2.05;;;23.00;99.90;;;;;;10590119;28;20204;-90
2022/07/25 21:24:54;;;;;;;2.33;2.00;;;23.00;99.90;;;;;;10587815;28;20582;-88
2022/07/25 21:29:56;;;;;;;2.67;2.47;;;22.80;99.90;;;;;;10586927;27;20217;-88
2022/07/25 21:34:59;;;;;;;3.25;2.35;;;22.70;99.90;;;;;;10629297;27;20260;-90
2022/07/25 21:40:02;;;;;;;2.63;2.42;;;22.80;99.90;;;;;;10629238;27;20196;-89
2022/07/25 21:45:05;;;;;;;4.28;2.65;;;22.80;99.90;;;;;;10629032;27;20196;-90
2022/07/25 21:55:29;;;;;;;2.45;2.25;;;22.70;99.90;;;;;;10629096;27;20553;-90
2022/07/25 22:00:33;;;;;;;2.42;2.22;;;22.80;99.90;;;;;;10628256;27;20249;-89
2022/07/25 22:05:41;;;;;;;3.28;2.33;;;22.80;99.90;;;;;;10609783;27;20276;-89
2022/07/25 22:10:43;;;;;;;1.98;1.88;;;22.90;99.90;;;;;;10628003;27;20216;-89
2022/07/25 22:15:46;;;;;;;4.30;2.47;;;22.90;99.90;;;;;;10627977;27;20188;-90
2022/07/25 22:20:49;;;;;;;4.65;2.75;;;22.90;99.90;;;;;;10627516;27;20568;-89
2022/07/25 22:25:52;;;;;;;3.85;3.00;;;22.80;99.90;;;;;;10608305;27;20204;-90
2022/07/25 22:30:56;;;;;;;3.10;2.75;;;22.80;99.90;;;;;;10607799;27;20221;-90
2022/07/25 22:35:59;;;;;;;2.55;2.35;;;22.40;99.90;;;;;;10626516;27;20561;-89
2022/07/25 22:41:02;;;;;;;4.85;2.50;;;;;;;;;;10608150;27;20264;-89
2022/07/25 22:46:05;;;;;;;3.55;2.58;;;22.50;99.90;;;;;;10607985;27;20254;-90
2022/07/25 22:51:08;;;;;;;2.10;1.98;;;22.50;99.90;;;;;;10626428;27;20208;-90
2022/07/25 22:56:11;;;;;;;2.20;2.10;;;22.70;99.90;;;;;;10608100;27;20218;-89
2022/07/25 23:01:13;;;;;;;3.08;2.35;;;22.70;99.90;;;;;;10590649;27;20200;-89
2022/07/25 23:06:17;;;;;;;2.47;2.22;;;22.40;99.90;;;;;;10626365;27;20613;-90
2022/07/25 23:11:19;;;;;;;2.67;2.38;;;22.50;99.90;;;;;;10590685;27;20220;-89
2022/07/25 23:16:22;;;;;;;2.70;2.50;;;22.70;99.90;;;;;;10625900;27;20200;-89
2022/07/25 23:21:25;;;;;;;2.20;2.00;;;22.80;99.90;;;;;;10606740;27;20672;-90
2022/07/25 23:26:27;;;;;;;2.63;2.42;;;22.80;99.90;;;;;;10625546;27;20196;-89
2022/07/25 23:31:30;;;;;;;2.92;2.60;;;22.80;99.90;;;;;;10606366;27;20249;-90
2022/07/25 23:36:32;;;;;;;3.08;2.70;;;22.80;99.90;;;;;;10606916;27;20221;-89
2022/07/25 23:41:35;;;;;;;3.00;2.33;;;22.80;99.90;;;;;;10605982;27;20199;-90
2022/07/25 23:46:39;;;;;;;2.85;2.42;;;22.80;99.90;;;;;;10624959;27;20200;-90
2022/07/25 23:51:42;;;;;;;2.53;2.33;;;22.90;99.90;;;;;;10624734;27;20260;-90
2022/07/25 23:56:44;;;;;;;2.50;2.30;;;22.90;99.90;;;;;;10625041;27;20184;-90
